Time;durP1;ratioP1;P1;durP2;ratioP2;P2;SDS_P1;SDS_P2;PMS_P1;PMS_P2;Temp;Humidity;BMP_temperature;BMP_pressure;BME280_temperature;BME280_humidity;BME280_pressure;Samples;Min_cycle;Max_cycle;Signal;HPM_P1;HPM_P2
2023/01/02 00:00:20;;;;;;;6.25;2.95;;;;;;;;;;6063439;23;20045;-84
2023/01/02 00:02:46;;;;;;;4.88;2.40;;;;;;;;;;6039607;23;20448;-84
2023/01/02 00:05:11;;;;;;;8.32;2.63;;;;;;;;;;6063979;23;20022;-85
2023/01/02 00:07:37;;;;;;;6.78;2.58;;;;;;;;;;6085891;23;20336;-85
2023/01/02 00:10:03;;;;;;;7.43;3.20;;;;;;;;;;6070185;23;20037;-85
2023/01/02 00:12:28;;;;;;;7.97;3.00;;;;;;;;;;6066945;23;20391;-85
2023/01/02 00:14:53;;;;;;;5.40;2.65;;;;;;;;;;6092892;23;20097;-84
2023/01/02 00:17:19;;;;;;;6.13;2.70;;;;;;;;;;6067593;23;20632;-84
2023/01/02 00:19:45;;;;;;;6.40;2.65;;;;;;;;;;6068581;23;20029;-86
2023/01/02 00:22:10;;;;;;;7.57;2.97;;;;;;;;;;6092534;23;20119;-84
2023/01/02 00:24:35;;;;;;;7.85;2.65;;;;;;;;;;6067653;23;20049;-86
2023/01/02 00:27:01;;;;;;;8.35;2.47;;;;;;;;;;6068345;23;20018;-86
2023/01/02 00:29:26;;;;;;;7.63;2.90;;;;;;;;;;6092590;23;20013;-83
2023/01/02 00:31:52;;;;;;;7.85;2.80;;;;;;;;;;6067741;23;20339;-84
2023/01/02 00:34:17;;;;;;;6.10;2.55;;;;;;;;;;6092453;23;20028;-84
2023/01/02 00:36:42;;;;;;;7.13;3.00;;;;;;;;;;6067016;23;20025;-86
2023/01/02 00:39:08;;;;;;;8.05;2.90;;;;;;;;;;6092724;23;20029;-84
2023/01/02 00:41:33;;;;;;;6.78;2.50;;;;;;;;;;6068782;23;20026;-84
2023/01/02 00:43:58;;;;;;;8.80;3.22;;;;;;;;;;6067833;23;20017;-86
2023/01/02 00:46:24;;;;;;;6.90;2.55;;;;;;;;;;6092348;23;20038;-86
2023/01/02 00:48:49;;;;;;;5.10;2.65;;;;;;;;;;6068065;23;20010;-85
2023/01/02 00:51:15;;;;;;;9.85;3.03;;;;;;;;;;6067580;23;20041;-86
2023/01/02 00:53:40;;;;;;;6.05;2.42;;;;;;;;;;6090773;23;20014;-84
2023/01/02 00:56:06;;;;;;;5.50;2.50;;;;;;;;;;6067370;23;20014;-82
2023/01/02 00:58:31;;;;;;;6.68;2.75;;;;;;;;;;6068791;23;20107;-84
2023/01/02 01:00:56;;;;;;;7.78;2.53;;;;;;;;;;6090528;23;20037;-85
2023/01/02 01:03:22;;;;;;;6.65;2.63;;;;;;;;;;6091289;23;20686;-85
2023/01/02 01:05:47;;;;;;;6.50;2.92;;;;;;;;;;6067118;23;20021;-85
2023/01/02 01:08:13;;;;;;;7.43;2.40;;;;;;;;;;6068245;23;20025;-85
2023/01/02 01:10:38;;;;;;;6.05;2.45;;;;;;;;;;6067178;23;20014;-84
2023/01/02 01:13:04;;;;;;;6.82;2.45;;;;;;;;;;6068671;23;20332;-85
2023/01/02 01:15:30;;;;;;;7.82;2.70;;;;;;;;;;6067383;23;20018;-85
2023/01/02 01:17:55;;;;;;;7.85;2.75;;;;;;;;;;6092065;23;20028;-84
2023/01/02 01:20:20;;;;;;;7.72;2.60;;;;;;;;;;6067214;23;20021;-85
2023/01/02 01:22:46;;;;;;;5.55;2.35;;;;;;;;;;6067491;23;20039;-84
2023/01/02 01:25:11;;;;;;;9.85;2.78;;;;;;;;;;6067140;23;20014;-85
2023/01/02 01:27:36;;;;;;;8.80;2.55;;;;;;;;;;6067571;23;20396;-85
2023/01/02 01:30:03;;;;;;;5.72;2.40;;;;;;;;;;6068580;23;20109;-85
2023/01/02 01:32:29;;;;;;;7.53;2.43;;;;;;;;;;6091433;23;20017;-85
2023/01/02 01:34:54;;;;;;;6.25;2.28;;;;;;;;;;6091863;23;20011;-85
2023/01/02 01:37:20;;;;;;;7.10;2.50;;;;;;;;;;6091513;23;20017;-85
2023/01/02 01:39:45;;;;;;;6.57;2.38;;;;;;;;;;6092364;23;20021;-84
2023/01/02 01:42:14;;;;;;;6.00;2.47;;;;;;;;;;6067223;23;20029;-85
2023/01/02 01:44:45;;;;;;;5.03;2.38;;;;;;;;;;6067647;23;20010;-85
2023/01/02 01:47:18;;;;;;;6.57;2.30;;;;;;;;;;6091273;23;20021;-85
2023/01/02 01:49:44;;;;;;;5.90;2.17;;;;;;;;;;6092407;23;20046;-86
2023/01/02 01:52:16;;;;;;;4.97;2.50;;;;;;;;;;6090949;23;20480;-84
2023/01/02 01:55:02;;;;;;;6.78;2.22;;;;;;;;;;6068479;23;20469;-85
2023/01/02 01:57:33;;;;;;;5.85;2.30;;;;;;;;;;6067027;23;20496;-86
2023/01/02 02:00:00;;;;;;;5.28;2.30;;;;;;;;;;6067642;23;20018;-85
2023/01/02 02:02:28;;;;;;;5.80;2.45;;;;;;;;;;6066538;23;20096;-85
2023/01/02 02:04:54;;;;;;;5.45;2.13;;;;;;;;;;6091946;23;20401;-85
2023/01/02 02:07:19;;;;;;;5.70;2.30;;;;;;;;;;6090610;23;20069;-85
2023/01/02 02:09:52;;;;;;;8.07;2.83;;;;;;;;;;6067533;23;20240;-86
2023/01/02 02:12:17;;;;;;;8.30;2.83;;;;;;;;;;6066692;23;20024;-85
2023/01/02 02:14:43;;;;;;;5.40;2.13;;;;;;;;;;6068200;23;20341;-85
2023/01/02 02:17:48;;;;;;;6.82;2.33;;;;;;;;;;6091267;23;20517;-85
2023/01/02 02:20:26;;;;;;;7.57;2.13;;;;;;;;;;6064789;23;20025;-86
2023/01/02 02:22:57;;;;;;;;;;;;;;;;;;6091550;23;20471;-85
2023/01/02 02:25:47;;;;;;;5.88;2.10;;;;;;;;;;6090564;23;19941;-85
2023/01/02 02:28:34;;;;;;;4.80;1.95;;;;;;;;;;6066431;23;20510;-85
2023/01/02 02:31:12;;;;;;;6.50;2.03;;;;;;;;;;6067080;23;20382;-84
2023/01/02 02:33:45;;;;;;;7.30;2.10;;;;;;;;;;6090919;23;20020;-85
2023/01/02 02:36:17;;;;;;;6.22;2.25;;;;;;;;;;6066473;23;20014;-85
2023/01/02 02:38:51;;;;;;;6.13;2.17;;;;;;;;;;6091437;23;20391;-84
2023/01/02 02:41:35;;;;;;;4.47;1.92;;;;;;;;;;6090930;23;20033;-84
2023/01/02 02:44:19;;;;;;;4.38;2.17;;;;;;;;;;6091222;23;20026;-85
2023/01/02 02:47:06;;;;;;;4.45;2.22;;;;;;;;;;6090050;23;20121;-85
2023/01/02 02:49:34;;;;;;;;;;;;;;;;;;6068198;23;20018;-84
2023/01/02 02:52:17;;;;;;;6.10;2.33;;;;;;;;;;6090836;23;19920;-85
2023/01/02 02:54:55;;;;;;;5.95;2.58;;;;;;;;;;6091323;23;20120;-84
2023/01/02 02:57:22;;;;;;;6.05;2.20;;;;;;;;;;6052832;23;20466;-84
2023/01/02 02:59:47;;;;;;;7.32;2.80;;;;;;;;;;6092527;23;20014;-85
2023/01/02 03:02:14;;;;;;;4.63;1.90;;;;;;;;;;6068362;23;20022;-84
2023/01/02 03:04:42;;;;;;;6.43;2.00;;;;;;;;;;6069876;23;20018;-84
2023/01/02 03:07:30;;;;;;;5.15;2.13;;;;;;;;;;6068726;23;20026;-84
2023/01/02 03:10:22;;;;;;;6.15;2.20;;;;;;;;;;6119656;23;20091;-85
2023/01/02 03:13:17;;;;;;;4.95;2.05;;;;;;;;;;6092889;23;20113;-84
2023/01/02 03:16:09;;;;;;;5.65;2.28;;;;;;;;;;6073650;23;20045;-85
2023/01/02 03:18:52;;;;;;;5.03;2.15;;;;;;;;;;6069642;23;20661;-85
2023/01/02 03:21:28;;;;;;;5.05;2.20;;;;;;;;;;6092335;23;20418;-85
2023/01/02 03:23:56;;;;;;;7.45;2.47;;;;;;;;;;6093131;23;20010;-85
2023/01/02 03:26:26;;;;;;;4.35;1.92;;;;;;;;;;6092413;23;20017;-84
2023/01/02 03:28:54;;;;;;;5.95;2.38;;;;;;;;;;6069067;23;20458;-86
2023/01/02 03:31:21;;;;;;;7.63;2.97;;;;;;;;;;6068324;23;20354;-84
2023/01/02 03:33:51;;;;;;;5.38;2.25;;;;;;;;;;6068799;23;20454;-85
2023/01/02 03:36:21;;;;;;;5.35;2.40;;;;;;;;;;6068539;23;20041;-85
2023/01/02 03:39:02;;;;;;;4.95;2.17;;;;;;;;;;6068989;23;20014;-85
2023/01/02 03:41:30;;;;;;;4.60;2.20;;;;;;;;;;6092363;23;20014;-85
2023/01/02 03:43:56;;;;;;;5.03;2.35;;;;;;;;;;6068897;23;20048;-85
2023/01/02 03:46:33;;;;;;;5.82;2.60;;;;;;;;;;6067935;23;20022;-84
2023/01/02 03:49:10;;;;;;;8.45;2.58;;;;;;;;;;6093388;23;20014;-85
2023/01/02 03:51:35;;;;;;;5.78;2.50;;;;;;;;;;6067876;23;20041;-85
2023/01/02 03:54:01;;;;;;;5.60;2.42;;;;;;;;;;6068332;23;20507;-84
2023/01/02 03:56:32;;;;;;;5.18;2.47;;;;;;;;;;6067877;23;20022;-85
2023/01/02 03:59:22;;;;;;;6.45;2.55;;;;;;;;;;6118794;23;20050;-85
2023/01/02 04:02:03;;;;;;;4.85;2.42;;;;;;;;;;6117769;23;20294;-84
2023/01/02 04:04:54;;;;;;;7.03;2.65;;;;;;;;;;6068603;23;20018;-83
2023/01/02 04:07:27;;;;;;;5.43;2.63;;;;;;;;;;6067108;23;20081;-85
2023/01/02 04:09:53;;;;;;;5.40;2.53;;;;;;;;;;6092632;23;20018;-84
2023/01/02 04:12:19;;;;;;;6.50;2.45;;;;;;;;;;6090486;23;20040;-85
2023/01/02 04:14:50;;;;;;;5.57;2.65;;;;;;;;;;6068609;23;20429;-84
2023/01/02 04:17:16;;;;;;;4.85;2.50;;;;;;;;;;6091883;23;20047;-85
2023/01/02 04:19:55;;;;;;;6.20;2.33;;;;;;;;;;6068220;23;20459;-85
2023/01/02 04:22:25;;;;;;;5.38;2.65;;;;;;;;;;6070019;23;20526;-84
2023/01/02 04:24:58;;;;;;;4.82;2.50;;;;;;;;;;6068706;23;20020;-85
2023/01/02 04:27:27;;;;;;;7.57;2.63;;;;;;;;;;6091588;23;20021;-84
2023/01/02 04:29:54;;;;;;;5.32;2.53;;;;;;;;;;6068781;23;20018;-85
2023/01/02 04:32:24;;;;;;;5.47;2.55;;;;;;;;;;6066926;23;20500;-84
2023/01/02 04:34:51;;;;;;;6.65;2.85;;;;;;;;;;6068865;23;20032;-85
2023/01/02 04:37:26;;;;;;;6.07;2.70;;;;;;;;;;6067675;23;20469;-84
2023/01/02 04:39:54;;;;;;;5.55;2.53;;;;;;;;;;6091782;23;20807;-85
2023/01/02 04:42:20;;;;;;;5.53;2.63;;;;;;;;;;6091910;23;20556;-85
2023/01/02 04:44:45;;;;;;;6.57;2.47;;;;;;;;;;6092974;23;20022;-86
2023/01/02 04:47:10;;;;;;;5.10;2.38;;;;;;;;;;6067867;23;20022;-85
2023/01/02 04:49:36;;;;;;;5.80;2.67;;;;;;;;;;6067902;23;20045;-82
2023/01/02 04:52:01;;;;;;;5.63;2.50;;;;;;;;;;6068267;23;20652;-84
2023/01/02 04:54:26;;;;;;;6.43;2.58;;;;;;;;;;6067895;23;20077;-84
2023/01/02 04:56:52;;;;;;;4.57;2.30;;;;;;;;;;6091838;23;20061;-84
2023/01/02 04:59:17;;;;;;;5.97;2.78;;;;;;;;;;6092001;23;20056;-85
2023/01/02 05:01:42;;;;;;;5.53;2.58;;;;;;;;;;6068027;23;20068;-84
2023/01/02 05:04:08;;;;;;;5.97;2.40;;;;;;;;;;6092579;23;20022;-85
2023/01/02 05:06:33;;;;;;;5.20;2.47;;;;;;;;;;6067846;23;20570;-85
2023/01/02 05:08:58;;;;;;;4.30;2.28;;;;;;;;;;6067611;23;20021;-84
2023/01/02 05:11:24;;;;;;;5.75;2.47;;;;;;;;;;6067599;23;20316;-84
2023/01/02 05:13:49;;;;;;;7.15;2.65;;;;;;;;;;6067423;23;20021;-85
2023/01/02 05:16:15;;;;;;;6.00;2.80;;;;;;;;;;6091671;23;20018;-85
2023/01/02 05:18:40;;;;;;;6.40;2.58;;;;;;;;;;6068487;23;20398;-85
2023/01/02 05:23:55;;;;;;;5.10;2.50;;;;;;;;;;6038358;23;20069;-85
2023/01/02 05:26:20;;;;;;;5.05;2.15;;;;;;;;;;6067494;23;20014;-85
2023/01/02 05:28:45;;;;;;;5.13;2.60;;;;;;;;;;6092485;23;20022;-87
2023/01/02 05:31:11;;;;;;;4.80;2.30;;;;;;;;;;6091213;23;20017;-86
2023/01/02 05:33:37;;;;;;;5.20;2.38;;;;;;;;;;6067453;23;20346;-86
2023/01/02 05:36:07;;;;;;;5.57;2.47;;;;;;;;;;6067740;23;20093;-87
2023/01/02 05:38:33;;;;;;;6.68;2.80;;;;;;;;;;6068508;23;20014;-87
2023/01/02 05:41:07;;;;;;;5.72;2.08;;;;;;;;;;6067758;23;20010;-86
2023/01/02 05:43:34;;;;;;;5.15;2.78;;;;;;;;;;6068624;23;20022;-87
2023/01/02 05:46:09;;;;;;;5.57;2.53;;;;;;;;;;6067145;23;20189;-87
2023/01/02 05:48:35;;;;;;;5.60;2.25;;;;;;;;;;6092173;23;20014;-88
2023/01/02 05:51:02;;;;;;;5.43;2.17;;;;;;;;;;6090861;23;20033;-87
2023/01/02 05:53:27;;;;;;;6.38;2.17;;;;;;;;;;6078223;23;20422;-87
2023/01/02 05:55:53;;;;;;;5.45;2.45;;;;;;;;;;6091458;23;20025;-87
2023/01/02 05:58:18;;;;;;;5.38;2.50;;;;;;;;;;6066784;23;20110;-87
2023/01/02 06:00:43;;;;;;;5.38;2.08;;;;;;;;;;6090936;23;20010;-86
2023/01/02 06:03:09;;;;;;;4.45;2.00;;;;;;;;;;6091327;23;20451;-87
2023/01/02 06:05:34;;;;;;;4.15;1.90;;;;;;;;;;6090761;23;20013;-87
2023/01/02 06:08:00;;;;;;;5.75;2.42;;;;;;;;;;6086047;23;20391;-87
2023/01/02 06:10:25;;;;;;;5.32;1.80;;;;;;;;;;6060893;23;20026;-86
2023/01/02 06:12:50;;;;;;;5.15;2.03;;;;;;;;;;6038831;23;20078;-87
2023/01/02 06:15:16;;;;;;;4.10;1.63;;;;;;;;;;6037553;23;20018;-87
2023/01/02 06:17:41;;;;;;;4.70;1.70;;;;;;;;;;6037792;23;20019;-87
2023/01/02 06:20:07;;;;;;;4.50;2.00;;;;;;;;;;6038008;23;20025;-86
2023/01/02 06:22:33;;;;;;;4.45;1.95;;;;;;;;;;6038770;23;20506;-86
2023/01/02 06:24:58;;;;;;;4.25;2.40;;;;;;;;;;6062541;23;20095;-86
2023/01/02 06:27:23;;;;;;;4.18;1.95;;;;;;;;;;6037469;23;20030;-86
2023/01/02 06:29:49;;;;;;;4.35;1.98;;;;;;;;;;6063342;23;20396;-86
2023/01/02 06:32:14;;;;;;;4.18;2.15;;;;;;;;;;6037175;23;20018;-86
2023/01/02 06:34:39;;;;;;;5.25;1.90;;;;;;;;;;6036986;23;20034;-87
2023/01/02 06:37:05;;;;;;;7.93;2.10;;;;;;;;;;6062069;23;20474;-87
2023/01/02 06:39:31;;;;;;;5.63;2.03;;;;;;;;;;6038277;23;20652;-87
2023/01/02 06:41:57;;;;;;;4.33;2.03;;;;;;;;;;6062056;23;20366;-87
2023/01/02 06:44:22;;;;;;;5.32;1.95;;;;;;;;;;6038140;23;20302;-86
2023/01/02 06:46:48;;;;;;;5.53;1.92;;;;;;;;;;6037270;23;20018;-87
2023/01/02 06:49:13;;;;;;;3.95;1.95;;;;;;;;;;6061425;23;20093;-87
2023/01/02 06:51:58;;;;;;;4.03;1.80;;;;;;;;;;6037597;23;20081;-87
2023/01/02 06:54:24;;;;;;;5.72;2.15;;;;;;;;;;5975395;23;20473;-87
2023/01/02 06:56:49;;;;;;;4.20;2.05;;;;;;;;;;5997908;23;20029;-88
2023/01/02 06:59:15;;;;;;;3.80;1.65;;;;;;;;;;5974963;23;20497;-87
2023/01/02 07:01:40;;;;;;;4.55;1.70;;;;;;;;;;5974860;23;20026;-87
2023/01/02 07:04:05;;;;;;;3.70;1.90;;;;;;;;;;5975929;23;20028;-87
2023/01/02 07:06:33;;;;;;;4.05;1.80;;;;;;;;;;5953896;23;20031;-87
2023/01/02 07:08:58;;;;;;;;;;;;;;;;;;5976262;23;20047;-87
2023/01/02 07:11:24;;;;;;;4.13;1.70;;;;;;;;;;5974756;23;19919;-88
2023/01/02 07:13:51;;;;;;;4.57;1.70;;;;;;;;;;5975473;23;20019;-87
2023/01/02 07:16:18;;;;;;;4.07;2.05;;;;;;;;;;5975450;23;20488;-83
2023/01/02 07:18:44;;;;;;;5.30;1.95;;;;;;;;;;5975174;23;20247;-84
2023/01/02 07:21:10;;;;;;;5.03;1.90;;;;;;;;;;5974279;23;20027;-83
2023/01/02 07:23:36;;;;;;;5.13;2.13;;;;;;;;;;5975833;23;20016;-83
2023/01/02 07:26:03;;;;;;;3.90;1.50;;;;;;;;;;5975098;23;20508;-82
2023/01/02 07:28:29;;;;;;;5.63;2.20;;;;;;;;;;5973375;23;20027;-83
2023/01/02 07:31:00;;;;;;;6.85;1.98;;;;;;;;;;6000377;23;20019;-84
2023/01/02 07:33:27;;;;;;;3.90;1.80;;;;;;;;;;6062013;23;20681;-84
2023/01/02 07:35:59;;;;;;;;;;;;;;;;;;6036963;23;20478;-83
2023/01/02 07:38:25;;;;;;;4.82;1.77;;;;;;;;;;6038150;23;19913;-83
2023/01/02 07:40:50;;;;;;;4.13;1.70;;;;;;;;;;6061239;23;20332;-84
2023/01/02 07:43:15;;;;;;;3.90;1.75;;;;;;;;;;6038294;23;20022;-86
2023/01/02 07:45:41;;;;;;;4.65;1.63;;;;;;;;;;6037725;23;20018;-84
2023/01/02 07:48:06;;;;;;;4.38;1.75;;;;;;;;;;6062991;23;20034;-83
2023/01/02 07:50:32;;;;;;;5.18;1.80;;;;;;;;;;6063686;23;20332;-84
2023/01/02 07:52:57;;;;;;;3.95;1.58;;;;;;;;;;6038795;23;20324;-83
2023/01/02 07:55:22;;;;;;;3.88;1.60;;;;;;;;;;6062395;23;20041;-84
2023/01/02 07:57:48;;;;;;;4.35;1.85;;;;;;;;;;6038295;23;20046;-84
2023/01/02 08:00:17;;;;;;;4.82;2.00;;;;;;;;;;6038491;23;20491;-84
2023/01/02 08:02:43;;;;;;;3.72;1.60;;;;;;;;;;6038144;23;20328;-86
2023/01/02 08:05:08;;;;;;;4.57;1.77;;;;;;;;;;6063045;23;20060;-84
2023/01/02 08:07:34;;;;;;;4.40;1.50;;;;;;;;;;6081701;23;20049;-86
2023/01/02 08:09:59;;;;;;;3.58;1.60;;;;;;;;;;6092325;23;20014;-87
2023/01/02 08:12:26;;;;;;;4.22;1.70;;;;;;;;;;6066979;23;25471;-86
2023/01/02 08:14:52;;;;;;;3.90;1.65;;;;;;;;;;6067926;23;20017;-86
2023/01/02 08:17:17;;;;;;;4.15;1.60;;;;;;;;;;6066645;23;20018;-85
2023/01/02 08:19:43;;;;;;;5.93;1.80;;;;;;;;;;6068129;23;20025;-86
2023/01/02 08:22:08;;;;;;;5.10;1.90;;;;;;;;;;6066293;23;20080;-86
2023/01/02 08:24:33;;;;;;;4.30;1.50;;;;;;;;;;6067514;23;20021;-86
2023/01/02 08:26:59;;;;;;;4.90;1.90;;;;;;;;;;6066659;23;20722;-83
2023/01/02 08:29:24;;;;;;;4.53;1.60;;;;;;;;;;6066380;23;20038;-84
2023/01/02 08:31:49;;;;;;;3.78;1.75;;;;;;;;;;6066160;23;20014;-83
2023/01/02 08:34:16;;;;;;;2.95;1.50;;;;;;;;;;6066259;23;20026;-83
2023/01/02 08:36:44;;;;;;;5.30;1.75;;;;;;;;;;6090126;23;20018;-85
2023/01/02 08:39:09;;;;;;;;;;;;;;;;;;6067062;23;20017;-83
2023/01/02 08:41:39;;;;;;;4.60;1.52;;;;;;;;;;6067122;23;20242;-83
2023/01/02 08:44:25;;;;;;;3.85;1.67;;;;;;;;;;6091200;23;20128;-87
2023/01/02 08:46:51;;;;;;;5.45;1.73;;;;;;;;;;6054369;23;20019;-89
2023/01/02 08:49:16;;;;;;;4.22;1.52;;;;;;;;;;6007266;23;20030;-88
2023/01/02 08:51:42;;;;;;;4.80;1.92;;;;;;;;;;6032348;23;20022;-86
2023/01/02 08:54:07;;;;;;;4.75;1.63;;;;;;;;;;6007173;23;20078;-86
2023/01/02 08:56:34;;;;;;;6.18;1.67;;;;;;;;;;6007346;23;20022;-86
2023/01/02 08:59:04;;;;;;;3.83;1.65;;;;;;;;;;6030907;23;20050;-84
2023/01/02 09:01:31;;;;;;;3.95;1.80;;;;;;;;;;6006853;23;20722;-85
2023/01/02 09:03:56;;;;;;;5.35;1.48;;;;;;;;;;6007778;23;20022;-85
2023/01/02 09:06:23;;;;;;;3.60;1.55;;;;;;;;;;6006455;23;20466;-83
2023/01/02 09:08:51;;;;;;;4.37;1.80;;;;;;;;;;6030832;23;20023;-83
2023/01/02 09:11:21;;;;;;;4.00;1.75;;;;;;;;;;6006793;23;20030;-82
2023/01/02 09:13:47;;;;;;;3.53;1.55;;;;;;;;;;6031254;23;20494;-83
2023/01/02 09:16:12;;;;;;;4.15;1.77;;;;;;;;;;6006787;23;20023;-83
2023/01/02 09:18:38;;;;;;;5.07;2.00;;;;;;;;;;6007593;23;20050;-83
2023/01/02 09:21:04;;;;;;;4.93;1.67;;;;;;;;;;6007881;23;20045;-86
2023/01/02 09:23:30;;;;;;;4.68;1.70;;;;;;;;;;6028128;23;20018;-85
2023/01/02 09:26:00;;;;;;;4.57;1.50;;;;;;;;;;6090238;23;20022;-86
2023/01/02 09:28:27;;;;;;;3.67;1.27;;;;;;;;;;6116919;23;20109;-84
2023/01/02 09:30:53;;;;;;;5.13;1.60;;;;;;;;;;6067159;23;20025;-85
2023/01/02 09:33:18;;;;;;;4.55;1.58;;;;;;;;;;6091893;23;20391;-85
2023/01/02 09:35:44;;;;;;;4.07;1.33;;;;;;;;;;6067426;23;20013;-85
2023/01/02 09:38:09;;;;;;;5.00;1.60;;;;;;;;;;6091487;23;20021;-86
2023/01/02 09:40:44;;;;;;;4.22;1.58;;;;;;;;;;6066701;23;20125;-85
2023/01/02 09:43:10;;;;;;;5.55;1.70;;;;;;;;;;6090597;23;20089;-87
2023/01/02 09:45:37;;;;;;;4.25;1.30;;;;;;;;;;6067421;23;20126;-87
2023/01/02 09:48:04;;;;;;;3.97;1.52;;;;;;;;;;6091885;23;20044;-86
2023/01/02 09:50:29;;;;;;;3.60;1.38;;;;;;;;;;6090545;23;20018;-86
2023/01/02 09:52:57;;;;;;;4.57;1.60;;;;;;;;;;6067847;23;20847;-87
2023/01/02 09:55:41;;;;;;;;;;;;;;;;;;6067732;23;20354;-85
2023/01/02 09:58:15;;;;;;;3.65;1.30;;;;;;;;;;6090630;23;19909;-84
2023/01/02 10:00:43;;;;;;;3.85;1.27;;;;;;;;;;6116669;23;20470;-85
2023/01/02 10:03:34;;;;;;;3.45;1.40;;;;;;;;;;6090446;23;20021;-87
2023/01/02 10:06:07;;;;;;;4.35;1.50;;;;;;;;;;6067178;23;20092;-86
2023/01/02 10:08:48;;;;;;;3.75;1.65;;;;;;;;;;6067738;23;20257;-86
2023/01/02 10:11:31;;;;;;;4.68;1.45;;;;;;;;;;6116812;23;20021;-86
2023/01/02 10:14:00;;;;;;;3.67;1.67;;;;;;;;;;6091507;23;20454;-86
2023/01/02 10:16:30;;;;;;;3.95;1.38;;;;;;;;;;6066874;23;20018;-86
2023/01/02 10:18:59;;;;;;;3.53;1.50;;;;;;;;;;6067362;23;20018;-86
2023/01/02 10:21:35;;;;;;;3.45;1.30;;;;;;;;;;6066818;23;20034;-86
2023/01/02 10:24:03;;;;;;;4.07;1.60;;;;;;;;;;6053688;23;20016;-86
2023/01/02 10:26:36;;;;;;;7.25;1.60;;;;;;;;;;6117045;23;20018;-86
2023/01/02 10:29:17;;;;;;;4.68;1.30;;;;;;;;;;6067867;23;20552;-86
2023/01/02 10:31:46;;;;;;;4.78;1.42;;;;;;;;;;6090218;23;20049;-86
2023/01/02 10:34:17;;;;;;;5.78;1.48;;;;;;;;;;6067379;23;20021;-85
2023/01/02 10:36:44;;;;;;;3.97;1.30;;;;;;;;;;6066772;23;20088;-86
2023/01/02 10:39:17;;;;;;;4.82;1.50;;;;;;;;;;6091346;23;20017;-86
2023/01/02 10:41:49;;;;;;;5.63;1.55;;;;;;;;;;6066743;23;20477;-86
2023/01/02 10:44:46;;;;;;;3.83;1.70;;;;;;;;;;6067108;23;20533;-86
2023/01/02 10:47:26;;;;;;;4.82;1.58;;;;;;;;;;6042188;23;20022;-86
2023/01/02 10:49:52;;;;;;;5.50;1.55;;;;;;;;;;6091455;23;20350;-87
2023/01/02 10:52:23;;;;;;;3.38;1.30;;;;;;;;;;6066486;23;20105;-87
2023/01/02 10:54:51;;;;;;;3.00;1.02;;;;;;;;;;6068020;23;20438;-86
2023/01/02 10:57:21;;;;;;;4.18;1.35;;;;;;;;;;6067286;23;20025;-86
2023/01/02 10:59:52;;;;;;;5.45;1.38;;;;;;;;;;6066972;23;20018;-86
2023/01/02 11:02:30;;;;;;;6.28;1.77;;;;;;;;;;6065935;23;20028;-86
2023/01/02 11:05:00;;;;;;;6.90;1.55;;;;;;;;;;6067472;23;20029;-86
2023/01/02 11:07:30;;;;;;;4.30;1.60;;;;;;;;;;6066222;23;20034;-85
2023/01/02 11:09:56;;;;;;;3.35;1.35;;;;;;;;;;6066790;23;20813;-84
2023/01/02 11:12:22;;;;;;;5.28;1.90;;;;;;;;;;6090037;23;20026;-85
2023/01/02 11:14:48;;;;;;;5.13;1.58;;;;;;;;;;6091252;23;20085;-86
2023/01/02 11:17:22;;;;;;;6.50;2.33;;;;;;;;;;6065865;23;20040;-84
2023/01/02 11:19:50;;;;;;;5.47;1.55;;;;;;;;;;6067779;23;20153;-83
2023/01/02 11:22:18;;;;;;;3.33;1.40;;;;;;;;;;6067560;23;20426;-82
2023/01/02 11:24:48;;;;;;;3.83;1.42;;;;;;;;;;6069435;23;20076;-84
2023/01/02 11:27:13;;;;;;;3.83;1.30;;;;;;;;;;6092424;23;20097;-84
2023/01/02 11:29:44;;;;;;;5.32;1.35;;;;;;;;;;6069418;23;20025;-84
2023/01/02 11:32:20;;;;;;;3.72;1.63;;;;;;;;;;6067457;23;20149;-83
2023/01/02 11:34:55;;;;;;;5.47;1.80;;;;;;;;;;6068770;23;20014;-85
2023/01/02 11:37:20;;;;;;;5.53;1.65;;;;;;;;;;6067820;23;20069;-85
2023/01/02 11:40:03;;;;;;;5.95;1.42;;;;;;;;;;6067995;23;20018;-86
2023/01/02 11:45:23;;;;;;;4.95;1.70;;;;;;;;;;6094643;23;20025;-86
2023/01/02 11:47:51;;;;;;;5.05;1.70;;;;;;;;;;6068878;23;20022;-87
2023/01/02 11:50:36;;;;;;;4.43;1.30;;;;;;;;;;6068193;23;20022;-86
2023/01/02 11:53:11;;;;;;;8.07;1.48;;;;;;;;;;6093280;23;20018;-86
2023/01/02 11:55:42;;;;;;;4.82;1.20;;;;;;;;;;6116955;23;20026;-87
2023/01/02 11:58:17;;;;;;;4.05;1.55;;;;;;;;;;6068403;23;20024;-87
2023/01/02 12:00:43;;;;;;;6.35;1.42;;;;;;;;;;6067927;23;20141;-86
2023/01/02 12:03:17;;;;;;;3.28;1.40;;;;;;;;;;6068417;23;20805;-85
2023/01/02 12:06:18;;;;;;;4.60;1.33;;;;;;;;;;6068194;23;20006;-89
2023/01/02 12:09:04;;;;;;;3.58;1.38;;;;;;;;;;6102088;23;20479;-87
2023/01/02 12:11:57;;;;;;;3.00;1.23;;;;;;;;;;6092737;23;20447;-86
2023/01/02 12:14:28;;;;;;;5.32;1.45;;;;;;;;;;6104093;23;20462;-88
2023/01/02 12:17:21;;;;;;;5.88;1.90;;;;;;;;;;6068748;23;20077;-90
2023/01/02 12:19:55;;;;;;;4.18;1.45;;;;;;;;;;6067892;23;20462;-88
2023/01/02 12:22:32;;;;;;;4.82;1.50;;;;;;;;;;6116950;23;20101;-85
2023/01/02 12:25:05;;;;;;;5.28;1.33;;;;;;;;;;6092353;23;20017;-87
2023/01/02 12:27:56;;;;;;;5.20;1.35;;;;;;;;;;6067009;23;20018;-86
2023/01/02 12:30:22;;;;;;;4.22;1.50;;;;;;;;;;6091501;23;20022;-85
2023/01/02 12:32:50;;;;;;;5.25;1.55;;;;;;;;;;6091575;23;20343;-86
2023/01/02 12:35:27;;;;;;;4.03;1.30;;;;;;;;;;6116772;23;20030;-86
2023/01/02 12:38:00;;;;;;;;;;;;;;;;;;6118578;23;20024;-85
2023/01/02 12:41:09;;;;;;;4.47;1.70;;;;;;;;;;6066899;23;20469;-86
2023/01/02 12:43:38;;;;;;;3.50;1.17;;;;;;;;;;6112014;23;20018;-85
2023/01/02 12:46:26;;;;;;;6.45;1.38;;;;;;;;;;6116707;23;20036;-86
2023/01/02 12:49:25;;;;;;;4.82;1.85;;;;;;;;;;6091365;23;20335;-86
2023/01/02 12:51:59;;;;;;;6.13;1.67;;;;;;;;;;6050821;23;20026;-86
2023/01/02 12:54:37;;;;;;;7.38;2.20;;;;;;;;;;6096500;23;20395;-87
2023/01/02 12:57:23;;;;;;;4.90;1.58;;;;;;;;;;6066983;23;20014;-84
2023/01/02 13:00:13;;;;;;;6.33;1.90;;;;;;;;;;6117784;23;20029;-85
2023/01/02 13:03:28;;;;;;;5.47;1.60;;;;;;;;;;6115718;23;20381;-86
2023/01/02 13:06:22;;;;;;;4.47;1.42;;;;;;;;;;6002681;23;20023;-86
2023/01/02 13:09:12;;;;;;;7.13;1.80;;;;;;;;;;6075725;23;20117;-85
2023/01/02 13:11:45;;;;;;;4.63;1.42;;;;;;;;;;6090130;23;20454;-88
2023/01/02 13:14:17;;;;;;;3.67;1.40;;;;;;;;;;6067638;23;20532;-88
2023/01/02 13:16:49;;;;;;;3.40;1.27;;;;;;;;;;6070842;23;20129;-85
2023/01/02 13:19:29;;;;;;;5.75;1.48;;;;;;;;;;6037967;23;20022;-86
2023/01/02 13:22:28;;;;;;;5.03;1.38;;;;;;;;;;6090559;23;20018;-86
2023/01/02 13:24:55;;;;;;;5.57;1.60;;;;;;;;;;6085995;23;20323;-86
2023/01/02 13:27:26;;;;;;;3.97;1.47;;;;;;;;;;6052747;23;20013;-86
2023/01/02 13:29:52;;;;;;;5.45;1.33;;;;;;;;;;6090977;23;20037;-87
2023/01/02 13:32:26;;;;;;;8.50;2.15;;;;;;;;;;6065256;23;20025;-85
2023/01/02 13:34:53;;;;;;;6.72;1.50;;;;;;;;;;6043921;23;20101;-86
2023/01/02 13:37:24;;;;;;;6.72;1.42;;;;;;;;;;6032384;23;20817;-86
2023/01/02 13:39:52;;;;;;;5.40;1.60;;;;;;;;;;6049890;23;20458;-87
2023/01/02 13:45:15;;;;;;;5.18;1.42;;;;;;;;;;6094193;23;20473;-87
2023/01/02 13:47:47;;;;;;;3.17;1.50;;;;;;;;;;6062077;23;20442;-86
2023/01/02 13:50:32;;;;;;;4.47;1.30;;;;;;;;;;6065190;23;20525;-86
2023/01/02 13:53:04;;;;;;;3.53;1.50;;;;;;;;;;6065880;23;20017;-87
2023/01/02 13:55:34;;;;;;;5.50;1.98;;;;;;;;;;6089640;23;20149;-86
2023/01/02 13:58:12;;;;;;;4.85;1.58;;;;;;;;;;6038107;23;20045;-86
2023/01/02 14:00:41;;;;;;;6.20;1.27;;;;;;;;;;6085141;23;20323;-87
2023/01/02 14:03:31;;;;;;;6.78;1.65;;;;;;;;;;6114527;23;20025;-87
2023/01/02 14:05:59;;;;;;;4.88;1.35;;;;;;;;;;6111405;23;20521;-88
2023/01/02 14:08:38;;;;;;;4.38;1.42;;;;;;;;;;6030192;23;20034;-88
2023/01/02 14:11:09;;;;;;;4.90;1.58;;;;;;;;;;6054264;23;20022;-88
2023/01/02 14:13:40;;;;;;;5.43;1.83;;;;;;;;;;6038201;23;20029;-89
2023/01/02 14:16:21;;;;;;;4.22;1.20;;;;;;;;;;6084586;23;20438;-88
2023/01/02 14:19:03;;;;;;;4.53;1.55;;;;;;;;;;6061454;23;20011;-88
2023/01/02 14:21:33;;;;;;;4.85;1.50;;;;;;;;;;6037551;23;20794;-89
2023/01/02 14:24:00;;;;;;;4.88;1.63;;;;;;;;;;6037860;23;20023;-89
2023/01/02 14:26:31;;;;;;;7.25;1.20;;;;;;;;;;6037339;23;20455;-87
2023/01/02 14:28:58;;;;;;;7.10;1.50;;;;;;;;;;6037816;23;20018;-86
2023/01/02 14:31:32;;;;;;;4.70;1.45;;;;;;;;;;6036963;23;20019;-86
2023/01/02 14:33:58;;;;;;;6.70;1.92;;;;;;;;;;6037109;23;20439;-86
2023/01/02 14:36:41;;;;;;;4.30;1.33;;;;;;;;;;6035721;23;20053;-86
2023/01/02 14:39:10;;;;;;;7.22;1.65;;;;;;;;;;6037655;23;20101;-85
2023/01/02 14:44:43;;;;;;;5.10;1.38;;;;;;;;;;6086817;23;20486;-85
2023/01/02 14:47:11;;;;;;;4.00;1.23;;;;;;;;;;6060673;23;20026;-85
2023/01/02 14:49:37;;;;;;;4.70;1.45;;;;;;;;;;6037899;23;20014;-85
2023/01/02 14:52:11;;;;;;;6.97;1.63;;;;;;;;;;6061588;23;20332;-85
2023/01/02 14:54:54;;;;;;;4.63;1.55;;;;;;;;;;6061974;23;20025;-84
2023/01/02 14:57:33;;;;;;;3.67;1.40;;;;;;;;;;6039139;23;20555;-85
2023/01/02 15:00:10;;;;;;;9.05;1.85;;;;;;;;;;6041523;23;20085;-85
2023/01/02 15:02:40;;;;;;;6.15;1.30;;;;;;;;;;6065551;23;20026;-85
2023/01/02 15:05:14;;;;;;;4.63;1.55;;;;;;;;;;6040906;23;20022;-85
2023/01/02 15:07:44;;;;;;;3.75;1.92;;;;;;;;;;6059786;23;20117;-85
2023/01/02 15:10:15;;;;;;;7.43;1.73;;;;;;;;;;6068960;23;20450;-85
2023/01/02 15:13:05;;;;;;;6.10;1.75;;;;;;;;;;6069547;23;20346;-85
2023/01/02 15:15:34;;;;;;;9.18;1.95;;;;;;;;;;6069000;23;20022;-85
2023/01/02 15:18:03;;;;;;;4.97;1.60;;;;;;;;;;6093015;23;20077;-86